createdAt,value
2022-08-12T00:02:10.619Z,95014.88
2022-08-12T00:04:37.007Z,95017.94
2022-08-12T00:07:03.396Z,95018.26
2022-08-12T00:09:29.780Z,95019.43
2022-08-12T00:11:56.155Z,95020.38
2022-08-12T00:14:22.570Z,95026.52
2022-08-12T00:16:48.952Z,95025.23
2022-08-12T00:19:15.358Z,95026.37
2022-08-12T00:21:41.735Z,95023.94
2022-08-12T00:24:08.118Z,95024.05
2022-08-12T00:26:34.500Z,95020.38
2022-08-12T00:29:00.885Z,95015.35
2022-08-12T00:31:27.342Z,95016.64
2022-08-12T00:33:53.725Z,95011.79
2022-08-12T00:36:34.693Z,95015.55
2022-08-12T00:38:46.495Z,95006.14
2022-08-12T00:41:12.879Z,95010.50
2022-08-12T00:43:39.260Z,95006.61
2022-08-12T00:46:05.648Z,95006.14
2022-08-12T00:48:32.026Z,95010.84
2022-08-12T00:50:58.411Z,95003.91
2022-08-12T00:53:24.789Z,95003.09
2022-08-12T00:55:51.175Z,94998.58
2022-08-12T00:58:17.597Z,94997.91
2022-08-12T01:00:43.987Z,95005.20
2022-08-12T01:03:10.365Z,95007.91
2022-08-12T01:05:36.760Z,95007.31
2022-08-12T01:08:03.146Z,95009.08
2022-08-12T01:10:32.936Z,95008.73
2022-08-12T01:12:55.992Z,95005.67
2022-08-12T01:15:22.373Z,95007.31
2022-08-12T01:17:48.758Z,95009.08
2022-08-12T01:20:15.144Z,95011.94
2022-08-12T01:22:41.637Z,95012.49
2022-08-12T01:25:07.908Z,95015.55
2022-08-12T01:27:34.286Z,95021.39
2022-08-12T01:30:00.671Z,95016.84
2022-08-12T01:32:27.054Z,95015.08
2022-08-12T01:34:53.439Z,95017.66
2022-08-12T01:37:19.820Z,95017.66
2022-08-12T01:40:31.555Z,95014.73
2022-08-12T01:42:12.602Z,95009.44
2022-08-12T01:44:38.987Z,95006.84
2022-08-12T01:47:05.366Z,95006.50
2022-08-12T01:49:31.751Z,95008.61
2022-08-12T01:52:15.001Z,95001.67
2022-08-12T01:54:24.607Z,95003.44
2022-08-12T01:56:50.997Z,95000.37
2022-08-12T01:59:17.382Z,95003.44
2022-08-12T02:01:43.811Z,95003.44
2022-08-12T02:04:10.287Z,95002.27
2022-08-12T02:06:36.677Z,94997.44
2022-08-12T02:09:03.053Z,95001.67
2022-08-12T02:11:29.436Z,95002.46
2022-08-12T02:13:55.832Z,95002.27
2022-08-12T02:16:22.212Z,95005.67
2022-08-12T02:18:48.624Z,95004.38
2022-08-12T02:21:15.004Z,95001.95
2022-08-12T02:23:41.408Z,94997.91
2022-08-12T02:26:07.790Z,95000.70
2022-08-12T02:28:34.199Z,95001.05
2022-08-12T02:31:00.647Z,95006.58
2022-08-12T02:33:27.030Z,95003.09
2022-08-12T02:35:53.500Z,95007.79
2022-08-12T02:38:19.887Z,95010.38
2022-08-12T02:40:46.271Z,95011.05
2022-08-12T02:43:14.347Z,95007.79
2022-08-12T02:45:39.046Z,95009.28
2022-08-12T02:48:05.424Z,95011.28
2022-08-12T02:50:31.801Z,95011.39
2022-08-12T02:52:58.190Z,95006.34
2022-08-12T02:55:28.398Z,95007.17
2022-08-12T02:57:50.953Z,95007.79
2022-08-12T03:00:17.336Z,95002.14
2022-08-12T03:02:43.719Z,95003.36
2022-08-12T03:05:10.093Z,95008.33
2022-08-12T03:07:59.788Z,95006.89
2022-08-12T03:10:05.542Z,95008.65
2022-08-12T03:12:48.736Z,95009.74
2022-08-12T03:14:55.739Z,95009.42
2022-08-12T03:17:22.126Z,95009.19
2022-08-12T03:20:08.653Z,95009.19
2022-08-12T03:22:14.893Z,95007.11
2022-08-12T03:24:41.285Z,95008.40
2022-08-12T03:27:10.112Z,95015.81
2022-08-12T03:29:49.717Z,95018.66
2022-08-12T03:32:00.452Z,95022.55
2022-08-12T03:34:26.826Z,95015.61
2022-08-12T03:36:53.208Z,95024.42
2022-08-12T03:39:19.633Z,95026.74
2022-08-12T03:41:46.007Z,95026.27
2022-08-12T03:44:12.393Z,95028.54
2022-08-12T03:46:38.775Z,95029.59
2022-08-12T03:49:05.272Z,95025.60
2022-08-12T03:51:31.661Z,95025.25
2022-08-12T03:53:58.045Z,95026.89
2022-08-12T03:56:24.435Z,95029.59
2022-08-12T03:58:50.810Z,95033.36
2022-08-12T04:01:17.278Z,95026.42
2022-08-12T04:03:43.616Z,95031.45
2022-08-12T04:06:10.035Z,95031.72
2022-08-12T04:08:36.412Z,95035.00
2022-08-12T04:11:02.987Z,95030.30
2022-08-12T04:13:29.365Z,95032.34
2022-08-12T04:15:55.796Z,95033.83
2022-08-12T04:18:22.164Z,95032.45
2022-08-12T04:20:48.623Z,95039.60
2022-08-12T04:23:16.617Z,95036.87
2022-08-12T04:25:41.387Z,95034.55
2022-08-12T04:28:13.187Z,95046.56
2022-08-12T04:30:34.160Z,95046.04
2022-08-12T04:33:00.543Z,95045.25
2022-08-12T04:35:26.922Z,95042.05
2022-08-12T04:37:58.402Z,95038.44
2022-08-12T04:40:28.457Z,95035.70
2022-08-12T04:42:46.102Z,95035.44
2022-08-12T04:45:12.478Z,95029.32
2022-08-12T04:47:38.876Z,95029.53
2022-08-12T04:50:05.259Z,95025.65
2022-08-12T04:52:34.847Z,95022.95
2022-08-12T04:54:58.093Z,95029.27
2022-08-12T04:57:24.514Z,95024.23
2022-08-12T04:59:51.829Z,95020.20
2022-08-12T05:02:20.969Z,95024.23
2022-08-12T05:04:43.680Z,95030.08
2022-08-12T05:07:10.115Z,95021.50
2022-08-12T05:09:59.868Z,95027.73
2022-08-12T05:12:02.887Z,95022.80
2022-08-12T05:14:29.269Z,95024.33
2022-08-12T05:16:55.655Z,95031.14
2022-08-12T05:19:22.582Z,95035.02
2022-08-12T05:21:48.437Z,95037.95
2022-08-12T05:24:14.815Z,95035.61
2022-08-12T05:26:41.210Z,95032.44
2022-08-12T05:30:07.638Z,95037.61
2022-08-12T05:31:40.600Z,95040.30
2022-08-12T05:34:00.494Z,95039.37
2022-08-12T05:36:26.881Z,95045.83
2022-08-12T05:38:53.256Z,95044.77
2022-08-12T05:41:19.671Z,95050.89
2022-08-12T05:43:46.214Z,95047.83
2022-08-12T05:46:12.633Z,95045.48
2022-08-12T05:48:39.009Z,95045.09
2022-08-12T05:51:05.404Z,95047.48
2022-08-12T05:53:31.802Z,95044.51
2022-08-12T05:55:58.201Z,95047.41
2022-08-12T05:58:24.580Z,95054.85
2022-08-12T06:00:50.966Z,95052.85
2022-08-12T06:03:17.601Z,95048.66
2022-08-12T06:05:54.820Z,95049.20
2022-08-12T06:08:10.138Z,95047.09
2022-08-12T06:10:36.527Z,95046.48
2022-08-12T06:13:02.913Z,95047.97
2022-08-12T06:15:29.308Z,95048.59
2022-08-12T06:17:55.697Z,95056.70
2022-08-12T06:20:28.724Z,95049.27
2022-08-12T06:22:48.461Z,95052.94
2022-08-12T06:25:17.494Z,95053.03
2022-08-12T06:27:41.255Z,95052.00
2022-08-12T06:30:13.417Z,95051.53
2022-08-12T06:32:34.454Z,95051.30
2022-08-12T06:35:24.994Z,95055.80
2022-08-12T06:37:26.828Z,95051.80
2022-08-12T06:39:53.390Z,95054.38
2022-08-12T06:42:32.951Z,95060.84
2022-08-12T06:44:46.124Z,95057.23
2022-08-12T06:47:12.526Z,95052.73
2022-08-12T06:49:38.912Z,95053.56
2022-08-12T06:52:05.291Z,95050.23
2022-08-12T06:54:32.468Z,95047.09
2022-08-12T06:58:06.631Z,95052.27
2022-08-12T06:59:24.478Z,95046.63
2022-08-12T07:01:51.870Z,95048.70
2022-08-12T07:04:35.898Z,95045.53
2022-08-12T07:06:43.699Z,95046.63
2022-08-12T07:09:16.231Z,95043.89
2022-08-12T07:11:36.544Z,95041.30
2022-08-12T07:14:12.226Z,95039.91
2022-08-12T07:16:29.324Z,95039.95
2022-08-12T07:18:55.708Z,95039.89
2022-08-12T07:21:22.095Z,95043.62
2022-08-12T07:23:48.544Z,95043.98
2022-08-12T07:26:14.930Z,95043.82
2022-08-12T07:28:41.330Z,95043.50
2022-08-12T07:31:07.712Z,95041.39
2022-08-12T07:33:34.206Z,95047.23
2022-08-12T07:36:00.585Z,95045.00
2022-08-12T07:38:28.997Z,95043.79
2022-08-12T07:40:53.391Z,95039.56
2022-08-12T07:43:19.779Z,95038.38
2022-08-12T07:45:46.170Z,95033.91
2022-08-12T07:48:12.551Z,95030.98
2022-08-12T07:50:38.935Z,95033.71
2022-08-12T07:53:05.310Z,95027.80
2022-08-12T07:55:31.696Z,95022.20
2022-08-12T07:57:58.110Z,95017.50
2022-08-12T08:00:24.505Z,95024.39
2022-08-12T08:02:50.895Z,95023.22
2022-08-12T08:05:17.271Z,95022.56
2022-08-12T08:07:43.660Z,95020.24
2022-08-12T08:10:10.057Z,95013.63
2022-08-12T08:12:36.456Z,95019.22
2022-08-12T08:15:02.842Z,95014.05
2022-08-12T08:17:29.229Z,95012.88
2022-08-12T08:20:03.548Z,95014.37
2022-08-12T08:22:32.053Z,95017.92
2022-08-12T08:24:48.461Z,95009.81
2022-08-12T08:27:14.853Z,95002.80
2022-08-12T08:29:41.249Z,95008.70
2022-08-12T08:32:07.649Z,95006.13
2022-08-12T08:34:53.949Z,95003.19
2022-08-12T08:37:04.008Z,94999.81
2022-08-12T08:39:27.920Z,95000.87
2022-08-12T08:42:17.086Z,94995.23
2022-08-12T08:44:20.749Z,94990.05
2022-08-12T08:46:47.277Z,94990.88
2022-08-12T08:49:13.706Z,94990.95
2022-08-12T08:51:40.079Z,94982.73
2022-08-12T08:54:06.473Z,94984.68
2022-08-12T08:56:32.851Z,94988.91
2022-08-12T08:58:59.238Z,94980.41
2022-08-12T09:01:25.709Z,94972.10
2022-08-12T09:05:09.714Z,94966.93
2022-08-12T09:06:18.438Z,94965.37
2022-08-12T09:08:46.329Z,94967.60
2022-08-12T09:11:11.220Z,94973.25
2022-08-12T09:14:10.707Z,94970.19
2022-08-12T09:16:04.005Z,94968.55
2022-08-12T09:18:33.446Z,94964.66
2022-08-12T09:20:56.889Z,94963.72
2022-08-12T09:23:59.027Z,94961.56
2022-08-12T09:25:49.679Z,94966.38
2022-08-12T09:28:18.265Z,94957.69
2022-08-12T09:30:42.858Z,94962.86
2022-08-12T09:33:15.150Z,94959.45
2022-08-12T09:35:43.041Z,94967.06
2022-08-12T09:38:01.791Z,94964.36
2022-08-12T09:40:56.122Z,94960.33
2022-08-12T09:45:23.553Z,94952.36
2022-08-12T09:47:59.098Z,94959.02
2022-08-12T09:50:20.146Z,94952.56
2022-08-12T09:52:40.177Z,94948.01
2022-08-12T09:55:06.576Z,94946.64
2022-08-12T09:58:45.515Z,94947.39
2022-08-12T10:00:16.791Z,94945.34
2022-08-12T10:02:49.813Z,94937.94
2022-08-12T10:04:52.455Z,94938.80
2022-08-12T10:07:24.986Z,94939.16
2022-08-12T10:09:58.455Z,94939.16
2022-08-12T10:12:13.134Z,94938.61
2022-08-12T10:14:37.957Z,94937.31
2022-08-12T10:17:04.358Z,94929.36
2022-08-12T10:19:36.825Z,94924.27
2022-08-12T10:21:57.159Z,94921.53
2022-08-12T10:24:23.591Z,94921.33
2022-08-12T10:26:49.993Z,94923.45
2022-08-12T10:30:37.780Z,94914.78
2022-08-12T10:31:47.034Z,94911.53
2022-08-12T10:34:14.876Z,94907.66
2022-08-12T10:36:40.894Z,94909.14
2022-08-12T10:39:02.115Z,94907.64
2022-08-12T10:41:57.905Z,94901.46
2022-08-12T10:43:56.919Z,94904.13
2022-08-12T10:46:21.285Z,94902.95
2022-08-12T10:48:47.672Z,94901.11
2022-08-12T10:52:04.804Z,94894.25
2022-08-12T10:53:43.882Z,94896.09
2022-08-12T10:56:06.835Z,94894.02
2022-08-12T10:58:33.284Z,94893.05
2022-08-12T11:01:25.697Z,94896.11
2022-08-12T11:04:28.132Z,94892.18
2022-08-12T11:07:06.908Z,94883.45
2022-08-12T11:08:36.511Z,94886.22
2022-08-12T11:10:45.755Z,94880.00
2022-08-12T11:13:11.809Z,94880.47
2022-08-12T11:16:19.073Z,94883.41
2022-08-12T11:18:04.621Z,94884.23
2022-08-12T11:20:31.429Z,94886.59
2022-08-12T11:22:58.673Z,94880.27
2022-08-12T11:25:23.903Z,94877.69
2022-08-12T11:27:51.303Z,94875.38
2022-08-12T11:30:30.959Z,94873.73
2022-08-12T11:32:44.619Z,94870.33
2022-08-12T11:35:11.687Z,94867.55
2022-08-12T11:37:57.717Z,94862.73
2022-08-12T11:40:02.539Z,94865.23
2022-08-12T11:42:32.211Z,94863.19
2022-08-12T11:44:55.326Z,94865.93
2022-08-12T11:47:21.714Z,94868.12
2022-08-12T11:49:51.911Z,94864.64
2022-08-12T11:52:17.582Z,94864.44
2022-08-12T11:54:40.880Z,94866.38
2022-08-12T11:58:34.067Z,94866.95
2022-08-12T12:02:05.038Z,94864.95
2022-08-12T12:04:29.441Z,94862.60
2022-08-12T12:06:53.298Z,94859.19
2022-08-12T12:09:19.295Z,94857.63
2022-08-12T12:11:48.866Z,94860.56
2022-08-12T12:14:12.075Z,94868.12
2022-08-12T12:16:39.986Z,94872.47
2022-08-12T12:19:04.915Z,94872.13
2022-08-12T12:21:47.034Z,94875.30
2022-08-12T12:24:00.988Z,94870.59
2022-08-12T12:26:35.276Z,94872.47
2022-08-12T12:28:54.518Z,94868.12
2022-08-12T12:32:09.191Z,94869.19
2022-08-12T12:33:57.009Z,94861.43
2022-08-12T12:36:20.562Z,94860.56
2022-08-12T12:38:36.047Z,94862.38
2022-08-12T12:41:14.227Z,94861.70
2022-08-12T12:43:44.775Z,94856.18
2022-08-12T12:45:55.266Z,94855.09
2022-08-12T12:48:21.653Z,94854.54
2022-08-12T12:50:51.406Z,94855.55
2022-08-12T12:54:05.030Z,94855.73
2022-08-12T12:55:40.828Z,94853.34
2022-08-12T12:58:07.214Z,94854.17
2022-08-12T13:00:33.607Z,94853.97
2022-08-12T13:02:59.992Z,94850.13
2022-08-12T13:05:27.901Z,94851.77
2022-08-12T13:07:55.144Z,94850.28
2022-08-12T13:10:23.900Z,94844.77
2022-08-12T13:12:45.665Z,94848.98
2022-08-12T13:15:12.057Z,94844.09
2022-08-12T13:18:01.915Z,94839.39
2022-08-12T13:20:04.830Z,94840.81
2022-08-12T13:22:31.252Z,94833.33
2022-08-12T13:24:57.644Z,94836.94
2022-08-12T13:27:28.373Z,94837.56
2022-08-12T13:29:50.415Z,94839.53
2022-08-12T13:32:19.021Z,94837.77
2022-08-12T13:34:43.275Z,94842.52
2022-08-12T13:37:10.144Z,94850.88
2022-08-12T13:39:36.136Z,94847.70
2022-08-12T13:42:02.481Z,94852.33
2022-08-12T13:44:28.874Z,94854.64
2022-08-12T13:46:58.836Z,94844.84
2022-08-12T13:49:54.557Z,94841.83
2022-08-12T13:51:48.040Z,94841.30
2022-08-12T13:54:14.427Z,94840.67
2022-08-12T13:56:40.816Z,94838.19
2022-08-12T13:59:08.441Z,94835.84
2022-08-12T14:01:33.577Z,94829.25
2022-08-12T14:04:00.009Z,94830.16
2022-08-12T14:06:30.362Z,94836.06
2022-08-12T14:08:52.772Z,94838.17
2022-08-12T14:11:19.189Z,94834.80
2022-08-12T14:14:05.472Z,94845.14
2022-08-12T14:16:14.345Z,94838.91
2022-08-12T14:18:38.336Z,94844.67
2022-08-12T14:21:04.727Z,94845.66
2022-08-12T14:24:05.081Z,94841.56
2022-08-12T14:25:57.658Z,94831.92
2022-08-12T14:28:24.166Z,94833.19
2022-08-12T14:31:00.359Z,94833.48
2022-08-12T14:33:17.007Z,94833.88
2022-08-12T14:35:48.470Z,94837.06
2022-08-12T14:38:12.257Z,94838.20
2022-08-12T14:40:38.653Z,94832.76
2022-08-12T14:43:06.358Z,94833.77
2022-08-12T14:45:44.856Z,94828.77
2022-08-12T14:47:58.664Z,94830.72
2022-08-12T14:50:40.890Z,94828.13
2022-08-12T14:57:56.515Z,94819.22
2022-08-12T15:00:10.198Z,94816.37
2022-08-12T15:02:36.211Z,94819.84
2022-08-12T15:05:03.853Z,94816.35
2022-08-12T15:07:34.221Z,94813.56
2022-08-12T15:09:55.637Z,94818.73
2022-08-12T15:12:24.757Z,94807.03
2022-08-12T15:14:48.369Z,94814.12
2022-08-12T15:17:19.805Z,94809.05
2022-08-12T15:20:32.085Z,94810.16
2022-08-12T15:22:37.642Z,94804.67
2022-08-12T15:24:33.941Z,94795.31
2022-08-12T15:27:00.329Z,94796.38
2022-08-12T15:29:26.749Z,94791.91
2022-08-12T15:31:59.778Z,94790.05
2022-08-12T15:34:19.531Z,94786.10
2022-08-12T15:36:55.097Z,94785.97
2022-08-12T15:39:16.733Z,94789.48
2022-08-12T15:41:50.381Z,94783.03
2022-08-12T15:44:37.710Z,94780.78
2022-08-12T15:46:32.374Z,94779.69
2022-08-12T15:48:59.564Z,94774.24
2022-08-12T15:51:24.273Z,94775.59
2022-08-12T15:53:53.460Z,94776.68
2022-08-12T15:56:17.149Z,94778.78
2022-08-12T15:58:43.543Z,94782.11
2022-08-12T16:01:09.936Z,94781.47
2022-08-12T16:03:45.427Z,94781.49
2022-08-12T16:06:19.372Z,94778.85
2022-08-12T16:08:29.100Z,94779.61
2022-08-12T16:10:55.596Z,94781.05
2022-08-12T16:13:32.450Z,94778.53
2022-08-12T16:16:01.470Z,94781.00
2022-08-12T16:18:20.043Z,94781.41
2022-08-12T16:20:41.486Z,94776.77
2022-08-12T16:23:36.319Z,94776.45
2022-08-12T16:26:02.881Z,94774.37
2022-08-12T16:28:00.422Z,94772.46
2022-08-12T16:30:29.448Z,94767.09
2022-08-12T16:32:53.908Z,94771.08
2022-08-12T16:35:20.095Z,94772.37
2022-08-12T16:38:24.414Z,94773.31
2022-08-12T16:40:12.892Z,94782.14
2022-08-12T16:42:39.247Z,94772.63
2022-08-12T16:45:05.645Z,94783.58
2022-08-12T16:47:57.453Z,94777.23
2022-08-12T16:49:58.416Z,94785.54
2022-08-12T16:52:24.786Z,94778.97
2022-08-12T16:54:51.168Z,94776.36
2022-08-12T16:57:17.562Z,94781.67
2022-08-12T16:59:53.365Z,94782.78
2022-08-12T17:02:10.322Z,94783.61
2022-08-12T17:04:36.704Z,94779.31
2022-08-12T17:07:05.264Z,94778.31
2022-08-12T17:09:39.904Z,94772.89
2022-08-12T17:11:58.036Z,94773.88
2022-08-12T17:14:24.921Z,94771.05
2022-08-12T17:16:50.803Z,94774.77
2022-08-12T17:19:17.185Z,94775.32
2022-08-12T17:22:01.349Z,94772.53
2022-08-12T17:24:09.951Z,94779.55
2022-08-12T17:26:36.335Z,94777.78
2022-08-12T17:29:02.713Z,94782.33
2022-08-12T17:32:00.589Z,94781.98
2022-08-12T17:33:58.169Z,94778.45
2022-08-12T17:36:22.685Z,94781.50
2022-08-12T17:38:50.816Z,94786.91
2022-08-12T17:41:23.216Z,94791.01
2022-08-12T17:43:57.312Z,94786.66
2022-08-12T17:46:08.291Z,94784.75
2022-08-12T17:48:38.744Z,94792.23
2022-08-12T17:51:01.166Z,94785.09
2022-08-12T17:53:27.544Z,94795.83
2022-08-12T17:55:53.935Z,94796.38
2022-08-12T17:58:21.409Z,94792.70
2022-08-12T18:00:46.708Z,94786.88
2022-08-12T18:03:13.081Z,94791.41
2022-08-12T18:05:55.389Z,94798.77
2022-08-12T18:08:05.845Z,94793.06
2022-08-12T18:10:32.236Z,94796.66
2022-08-12T18:12:58.645Z,94797.33
2022-08-12T18:15:27.028Z,94800.61
2022-08-12T18:17:51.396Z,94805.36
2022-08-12T18:20:17.787Z,94808.29
2022-08-12T18:22:44.372Z,94812.84
2022-08-12T18:26:11.570Z,94817.95
2022-08-12T18:27:44.892Z,94810.33
2022-08-12T18:30:04.394Z,94811.54
2022-08-12T18:32:44.304Z,94815.64
2022-08-12T18:34:56.312Z,94806.44
2022-08-12T18:37:41.564Z,94802.45
2022-08-12T18:39:48.947Z,94806.17
2022-08-12T18:42:15.384Z,94803.46
2022-08-12T18:44:41.776Z,94804.59
2022-08-12T18:47:09.220Z,94807.88
2022-08-12T18:49:39.245Z,94810.00
2022-08-12T18:52:02.316Z,94812.42
2022-08-12T18:54:27.343Z,94817.83
2022-08-12T18:56:53.729Z,94817.35
2022-08-12T18:59:59.856Z,94813.59
2022-08-12T19:02:19.963Z,94816.41
2022-08-12T19:04:12.965Z,94819.94
2022-08-12T19:06:39.344Z,94823.34
2022-08-12T19:09:05.727Z,94812.23
2022-08-12T19:11:32.104Z,94823.22
2022-08-12T19:13:58.487Z,94819.66
2022-08-12T19:16:24.869Z,94816.95
2022-08-12T19:18:53.653Z,94822.25
2022-08-12T19:21:20.375Z,94820.20
2022-08-12T19:23:46.422Z,94826.00
2022-08-12T19:26:13.292Z,94824.55
2022-08-12T19:28:39.214Z,94828.12
2022-08-12T19:31:05.596Z,94823.27
2022-08-12T19:33:33.341Z,94821.50
2022-08-12T19:36:24.491Z,94824.08
2022-08-12T19:38:27.190Z,94826.04
2022-08-12T19:40:51.176Z,94824.75
2022-08-12T19:43:20.023Z,94826.39
2022-08-12T19:45:48.722Z,94827.21
2022-08-12T19:48:16.436Z,94827.69
2022-08-12T19:50:36.690Z,94822.05
2022-08-12T19:53:03.074Z,94820.12
2022-08-12T19:55:29.460Z,94813.81
2022-08-12T19:58:02.426Z,94814.63
2022-08-12T20:00:22.313Z,94812.36
2022-08-12T20:02:48.707Z,94817.88
2022-08-12T20:06:05.932Z,94820.00
2022-08-12T20:07:42.827Z,94816.59
2022-08-12T20:10:07.844Z,94813.19
2022-08-12T20:12:34.672Z,94816.59
2022-08-12T20:15:00.608Z,94813.06
2022-08-12T20:17:27.028Z,94815.64
2022-08-12T20:20:16.952Z,94813.53
2022-08-12T20:22:24.792Z,94818.08
2022-08-12T20:24:46.176Z,94810.00
2022-08-12T20:27:29.081Z,94813.72
2022-08-12T20:29:45.659Z,94809.02
2022-08-12T20:32:05.357Z,94806.44
2022-08-12T20:34:34.231Z,94798.20
2022-08-12T20:37:05.250Z,94800.80
2022-08-12T20:39:53.228Z,94801.61
2022-08-12T20:41:53.378Z,94804.20
2022-08-12T20:44:19.810Z,94799.03
2022-08-12T20:46:46.199Z,94797.73
2022-08-12T20:49:17.330Z,94793.50
2022-08-12T20:51:52.787Z,94798.68
2022-08-12T20:54:05.357Z,94798.55
2022-08-12T20:56:31.744Z,94798.68
2022-08-12T20:58:58.125Z,94797.39
2022-08-12T21:01:28.823Z,94799.38
2022-08-12T21:03:52.719Z,94798.08
2022-08-12T21:06:17.404Z,94792.69
2022-08-12T21:08:43.836Z,94794.80
2022-08-12T21:11:10.173Z,94794.80
2022-08-12T21:13:39.342Z,94798.55
2022-08-12T21:16:05.322Z,94796.91
2022-08-12T21:18:31.890Z,94799.69
2022-08-12T21:20:58.085Z,94799.69
2022-08-12T21:23:25.549Z,94802.78
2022-08-12T21:25:51.158Z,94794.33
2022-08-12T21:28:17.270Z,94804.08
2022-08-12T21:31:10.592Z,94799.03
2022-08-12T21:33:14.520Z,94797.73
2022-08-12T21:35:39.941Z,94804.67
2022-08-12T21:38:02.833Z,94800.32
2022-08-12T21:40:37.068Z,94799.03
2022-08-12T21:42:55.623Z,94791.62
2022-08-12T21:45:45.845Z,94792.91
2022-08-12T21:47:53.284Z,94787.73
2022-08-12T21:50:14.792Z,94790.45
2022-08-12T21:52:42.140Z,94787.73
2022-08-12T21:55:08.616Z,94784.14
2022-08-12T21:57:36.457Z,94790.92
2022-08-12T22:00:00.349Z,94784.61
2022-08-12T22:02:30.934Z,94783.16
2022-08-12T22:04:53.114Z,94780.11
2022-08-12T22:07:19.494Z,94775.41
2022-08-12T22:09:45.899Z,94772.00
2022-08-12T22:12:12.282Z,94769.41
2022-08-12T22:14:38.673Z,94772.00
2022-08-12T22:17:06.358Z,94768.94
2022-08-12T22:19:34.860Z,94766.51
2022-08-12T22:21:58.819Z,94766.70
2022-08-12T22:24:26.275Z,94765.06
2022-08-12T22:26:50.597Z,94765.06
2022-08-12T22:29:17.250Z,94762.95
2022-08-12T22:31:43.360Z,94757.30
2022-08-12T22:34:09.750Z,94754.24
2022-08-12T22:36:36.128Z,94745.66
2022-08-12T22:39:02.590Z,94752.95
2022-08-12T22:41:28.973Z,94750.52
2022-08-12T22:44:01.157Z,94752.95
2022-08-12T22:46:26.630Z,94745.53
2022-08-12T22:48:52.562Z,94751.18
2022-08-12T22:51:16.957Z,94748.25
2022-08-12T22:53:43.339Z,94749.41
2022-08-12T22:56:09.738Z,94750.71
2022-08-12T22:58:36.133Z,94746.01
2022-08-12T23:01:03.576Z,94751.53
2022-08-12T23:03:49.298Z,94749.77
2022-08-12T23:06:09.934Z,94751.05
2022-08-12T23:08:21.670Z,94750.23
2022-08-12T23:10:48.275Z,94742.95
2022-08-12T23:13:14.452Z,94743.89
2022-08-12T23:15:40.819Z,94744.72
2022-08-12T23:18:07.199Z,94743.42
2022-08-12T23:20:33.576Z,94743.89
2022-08-12T23:23:03.183Z,94737.43
2022-08-12T23:25:54.214Z,94738.25
2022-08-12T23:27:55.719Z,94737.43
2022-08-12T23:30:25.214Z,94728.38
2022-08-12T23:32:45.565Z,94732.26
2022-08-12T23:35:18.845Z,94730.62
2022-08-12T23:37:47.312Z,94724.97
2022-08-12T23:40:15.744Z,94730.14
2022-08-12T23:42:31.315Z,94724.66
2022-08-12T23:44:57.545Z,94728.85
2022-08-12T23:47:23.930Z,94723.68
2022-08-12T23:49:57.053Z,94723.20
2022-08-12T23:52:16.717Z,94723.36
2022-08-12T23:54:44.467Z,94715.45
2022-08-12T23:57:11.256Z,94714.62
2022-08-12T23:59:35.981Z,94710.56
